Time;durP1;ratioP1;P1;durP2;ratioP2;P2;SDS_P1;SDS_P2;PMS_P1;PMS_P2;Temp;Humidity;BMP_temperature;BMP_pressure;BME280_temperature;BME280_humidity;BME280_pressure;Samples;Min_cycle;Max_cycle;Signal;HPM_P1;HPM_P2
2021/06/24 00:01:49;;;;;;;26.00;23.40;;;;;;;;;;5115469;28;20384;-72
2021/06/24 00:04:15;;;;;;;28.73;24.23;;;;;;;;;;5115534;28;20075;-72
2021/06/24 00:06:41;;;;;;;28.20;25.55;;;;;;;;;;5115543;28;20027;-72
2021/06/24 00:09:07;;;;;;;27.70;24.88;;;;;;;;;;5115163;28;20020;-72
2021/06/24 00:11:33;;;;;;;30.80;27.00;;;;;;;;;;5115370;28;20027;-72
2021/06/24 00:13:59;;;;;;;26.13;23.40;;;;;;;;;;5115220;28;20028;-72
2021/06/24 00:16:25;;;;;;;26.92;24.25;;;;;;;;;;5115176;28;20031;-72
2021/06/24 00:18:51;;;;;;;28.00;25.17;;;;;;;;;;5114549;28;20034;-72
2021/06/24 00:21:17;;;;;;;26.80;23.95;;;;;;;;;;5115788;28;20081;-72
2021/06/24 00:23:43;;;;;;;29.00;25.98;;;;;;;;;;5114954;28;20102;-71
2021/06/24 00:26:09;;;;;;;23.98;21.67;;;;;;;;;;5114994;28;20376;-71
2021/06/24 00:28:36;;;;;;;29.90;26.30;;;;;;;;;;5115015;28;20023;-73
2021/06/24 00:31:02;;;;;;;32.10;25.38;;;;;;;;;;5114785;28;20036;-72
2021/06/24 00:33:28;;;;;;;25.83;23.13;;;;;;;;;;5114884;28;20031;-72
2021/06/24 00:35:54;;;;;;;28.27;23.77;;;;;;;;;;5115189;28;20045;-73
2021/06/24 00:38:20;;;;;;;29.42;24.40;;;;;;;;;;5114531;28;20465;-72
2021/06/24 00:40:46;;;;;;;29.13;24.33;;;;;;;;;;5115075;28;20055;-73
2021/06/24 00:43:13;;;;;;;25.15;21.55;;;;;;;;;;5113797;28;20415;-72
2021/06/24 00:45:40;;;;;;;32.65;25.48;;;;;;;;;;5114499;28;20373;-72
2021/06/24 00:48:06;;;;;;;24.80;22.33;;;;;;;;;;5114589;28;20100;-72
2021/06/24 00:50:32;;;;;;;24.77;22.33;;;;;;;;;;5114734;28;20052;-71
2021/06/24 00:52:58;;;;;;;28.42;25.50;;;;;;;;;;5114561;28;20106;-72
2021/06/24 00:55:40;;;;;;;35.15;22.90;;;;;;;;;;5115063;28;20523;-72
2021/06/24 00:58:06;;;;;;;;;;;;;;;;;;5115376;28;20533;-72
2021/06/24 01:00:32;;;;;;;29.17;26.40;;;;;;;;;;5114129;28;20010;-71
2021/06/24 01:02:58;;;;;;;28.17;25.38;;;;;;;;;;5114496;28;20023;-71
2021/06/24 01:05:25;;;;;;;29.48;25.52;;;;;;;;;;5115131;28;20433;-71
2021/06/24 01:07:51;;;;;;;27.60;24.70;;;;;;;;;;5115145;28;20051;-72
2021/06/24 01:10:17;;;;;;;28.58;22.80;;;;;;;;;;5114558;28;20027;-72
2021/06/24 01:12:43;;;;;;;30.48;27.20;;;;;;;;;;5114614;28;20072;-72
2021/06/24 01:15:09;;;;;;;32.67;23.65;;;;;;;;;;5114083;28;20369;-72
2021/06/24 01:17:35;;;;;;;26.15;23.50;;;;;;;;;;5115001;28;20089;-71
2021/06/24 01:20:02;;;;;;;26.95;24.25;;;;;;;;;;5114593;28;20028;-72
2021/06/24 01:22:28;;;;;;;26.48;22.35;;;;;;;;;;5114548;28;20103;-72
2021/06/24 01:24:54;;;;;;;27.75;25.05;;;;;;;;;;5114233;28;20032;-72
2021/06/24 01:27:20;;;;;;;28.15;23.65;;;;;;;;;;5114253;28;20034;-71
2021/06/24 01:29:46;;;;;;;24.60;22.00;;;;;;;;;;5114160;28;20458;-72
2021/06/24 01:32:12;;;;;;;30.85;24.25;;;;;;;;;;5113906;28;20508;-70
2021/06/24 01:34:41;;;;;;;27.38;24.27;;;;;;;;;;5114197;28;20446;-72
2021/06/24 01:37:07;;;;;;;26.30;23.63;;;;;;;;;;5114003;28;20028;-72
2021/06/24 01:39:33;;;;;;;27.92;25.08;;;;;;;;;;5114051;28;20027;-72
2021/06/24 01:41:59;;;;;;;27.92;24.98;;;;;;;;;;5114519;28;20031;-73
2021/06/24 01:44:40;;;;;;;24.60;22.17;;;;;;;;;;5114126;28;20027;-72
2021/06/24 01:47:08;;;;;;;23.27;21.08;;;;;;;;;;5113941;28;20477;-72
2021/06/24 01:49:34;;;;;;;25.20;22.58;;;;;;;;;;5114101;28;20104;-72
2021/06/24 01:52:00;;;;;;;26.50;23.00;;;;;;;;;;5114416;28;20039;-71
2021/06/24 01:54:27;;;;;;;29.83;22.83;;;;;;;;;;5115745;28;20024;-72
2021/06/24 01:56:53;;;;;;;26.15;23.55;;;;;;;;;;5117571;28;20031;-73
2021/06/24 01:59:19;;;;;;;27.77;24.02;;;;;;;;;;5117611;28;20499;-72
2021/06/24 02:01:45;;;;;;;25.25;21.92;;;;;;;;;;5117526;28;20031;-72
2021/06/24 02:04:11;;;;;;;22.80;20.45;;;;;;;;;;5118115;28;20087;-72
2021/06/24 02:06:37;;;;;;;26.83;24.10;;;;;;;;;;5117983;28;20059;-71
2021/06/24 02:09:03;;;;;;;23.50;21.20;;;;;;;;;;5117370;28;20024;-71
2021/06/24 02:11:29;;;;;;;25.85;22.70;;;;;;;;;;5117408;28;20101;-72
2021/06/24 02:13:56;;;;;;;24.88;22.42;;;;;;;;;;5117676;28;20053;-72
2021/06/24 02:16:22;;;;;;;28.40;21.75;;;;;;;;;;5117925;28;20111;-72
2021/06/24 02:18:48;;;;;;;24.08;21.67;;;;;;;;;;5117365;28;20415;-72
2021/06/24 02:21:14;;;;;;;25.15;22.00;;;;;;;;;;5117146;28;20027;-72
2021/06/24 02:23:40;;;;;;;24.65;22.30;;;;;;;;;;5117338;28;20027;-73
2021/06/24 02:26:06;;;;;;;27.63;23.80;;;;;;;;;;5117154;28;20066;-73
2021/06/24 02:28:32;;;;;;;26.00;23.40;;;;;;;;;;5117052;28;20385;-72
2021/06/24 02:30:58;;;;;;;25.50;21.73;;;;;;;;;;5116856;28;20476;-72
2021/06/24 02:33:24;;;;;;;27.63;24.85;;;;;;;;;;5117138;28;20066;-73
2021/06/24 02:35:55;;;;;;;27.23;24.42;;;;;;;;;;5117403;28;20028;-72
2021/06/24 02:38:21;;;;;;;25.88;23.35;;;;;;;;;;5117377;28;20024;-72
2021/06/24 02:40:47;;;;;;;25.30;22.75;;;;;;;;;;5116996;28;20346;-73
2021/06/24 02:43:13;;;;;;;28.73;25.63;;;;;;;;;;5116676;28;20028;-72
2021/06/24 02:45:41;;;;;;;25.38;22.65;;;;;;;;;;5117149;28;20054;-72
2021/06/24 02:48:07;;;;;;;24.48;21.90;;;;;;;;;;5117240;28;20358;-72
2021/06/24 02:50:33;;;;;;;27.33;23.95;;;;;;;;;;5116902;28;20409;-72
2021/06/24 02:52:59;;;;;;;25.95;23.35;;;;;;;;;;5116994;28;20077;-72
2021/06/24 02:55:30;;;;;;;22.45;20.27;;;;;;;;;;5116698;28;20059;-72
2021/06/24 02:57:58;;;;;;;24.33;22.03;;;;;;;;;;5116798;28;20023;-73
2021/06/24 03:00:24;;;;;;;23.42;21.00;;;;;;;;;;5117159;28;20027;-72
2021/06/24 03:02:50;;;;;;;26.85;24.15;;;;;;;;;;5117007;28;20027;-72
2021/06/24 03:05:16;;;;;;;28.05;25.55;;;;;;;;;;5116238;28;20024;-72
2021/06/24 03:07:42;;;;;;;27.67;24.70;;;;;;;;;;5116711;28;20116;-72
2021/06/24 03:10:09;;;;;;;28.48;25.80;;;;;;;;;;5116658;28;20031;-72
2021/06/24 03:12:35;;;;;;;27.90;25.13;;;;;;;;;;5116737;28;20047;-72
2021/06/24 03:15:01;;;;;;;32.00;28.27;;;;;;;;;;5116650;28;20030;-72
2021/06/24 03:17:27;;;;;;;30.95;27.85;;;;;;;;;;5118404;28;20030;-72
2021/06/24 03:19:53;;;;;;;34.45;28.08;;;;;;;;;;5116737;28;20062;-73
2021/06/24 03:22:19;;;;;;;33.38;29.80;;;;;;;;;;5107105;28;20032;-73
2021/06/24 03:24:45;;;;;;;36.65;32.97;;;;;;;;;;5095728;28;20031;-72
2021/06/24 03:27:11;;;;;;;31.20;27.98;;;;;;;;;;5095777;28;20039;-73
2021/06/24 03:29:37;;;;;;;35.50;27.77;;;;;;;;;;5095757;28;20024;-73
2021/06/24 03:32:04;;;;;;;40.83;32.53;;;;;;;;;;5094894;28;20044;-73
2021/06/24 03:34:30;;;;;;;34.55;29.58;;;;;;;;;;5095715;28;20343;-72
2021/06/24 03:36:56;;;;;;;35.15;30.50;;;;;;;;;;5095727;28;20462;-73
2021/06/24 03:39:22;;;;;;;44.70;31.30;;;;;;;;;;5095317;28;20385;-73
2021/06/24 03:41:48;;;;;;;33.10;29.67;;;;;;;;;;5095723;28;20028;-73
2021/06/24 03:44:15;;;;;;;36.88;29.30;;;;;;;;;;5095624;28;20111;-72
2021/06/24 03:46:41;;;;;;;36.53;29.55;;;;;;;;;;5095960;28;20040;-73
2021/06/24 03:49:07;;;;;;;44.85;29.77;;;;;;;;;;5095052;28;20043;-73
2021/06/24 03:51:33;;;;;;;37.00;28.88;;;;;;;;;;5095575;28;20086;-72
2021/06/24 03:53:59;;;;;;;39.97;29.63;;;;;;;;;;5095375;28;20028;-72
2021/06/24 03:56:26;;;;;;;36.00;30.48;;;;;;;;;;5095485;28;20461;-73
2021/06/24 03:58:52;;;;;;;40.55;31.00;;;;;;;;;;5095140;28;20023;-73
2021/06/24 04:01:18;;;;;;;38.47;32.83;;;;;;;;;;5095101;28;20035;-73
2021/06/24 04:03:44;;;;;;;36.97;31.08;;;;;;;;;;5095306;28;20423;-73
2021/06/24 04:06:10;;;;;;;34.17;30.15;;;;;;;;;;5095536;28;20028;-73
2021/06/24 04:08:36;;;;;;;39.67;29.42;;;;;;;;;;5095041;28;20477;-73
2021/06/24 04:11:02;;;;;;;45.20;32.20;;;;;;;;;;5094760;28;20405;-73
2021/06/24 04:13:28;;;;;;;31.92;28.70;;;;;;;;;;5095563;28;20029;-73
2021/06/24 04:15:54;;;;;;;34.67;30.83;;;;;;;;;;5095089;28;20020;-73
2021/06/24 04:18:21;;;;;;;38.53;32.80;;;;;;;;;;5094242;28;20212;-72
2021/06/24 04:20:47;;;;;;;41.53;31.98;;;;;;;;;;5094991;28;20035;-72
2021/06/24 04:23:13;;;;;;;38.03;34.00;;;;;;;;;;5094530;28;20024;-72
2021/06/24 04:25:39;;;;;;;34.28;30.67;;;;;;;;;;5094803;28;20032;-73
2021/06/24 04:28:05;;;;;;;35.05;29.60;;;;;;;;;;5095157;28;20101;-74
2021/06/24 04:30:32;;;;;;;33.58;29.98;;;;;;;;;;5094498;28;20107;-74
2021/06/24 04:32:59;;;;;;;36.50;32.25;;;;;;;;;;5093315;28;20024;-72
2021/06/24 04:35:25;;;;;;;35.10;31.60;;;;;;;;;;5094531;28;20048;-72
2021/06/24 04:37:51;;;;;;;44.47;32.30;;;;;;;;;;5094513;28;20035;-72
2021/06/24 04:40:17;;;;;;;41.50;34.78;;;;;;;;;;5094288;28;20020;-74
2021/06/24 04:42:44;;;;;;;43.15;33.13;;;;;;;;;;5094412;28;20107;-73
2021/06/24 04:45:10;;;;;;;35.60;28.80;;;;;;;;;;5094041;28;20027;-72
2021/06/24 04:47:36;;;;;;;32.40;28.65;;;;;;;;;;5094075;28;20028;-72
2021/06/24 04:50:03;;;;;;;33.20;29.17;;;;;;;;;;5094190;28;20114;-73
2021/06/24 04:52:29;;;;;;;36.63;28.85;;;;;;;;;;5094797;28;20545;-73
2021/06/24 04:54:56;;;;;;;34.20;29.20;;;;;;;;;;5093631;28;20087;-72
2021/06/24 04:57:22;;;;;;;34.30;26.58;;;;;;;;;;5094346;28;20556;-72
2021/06/24 04:59:49;;;;;;;53.50;32.05;;;;;;;;;;5093698;28;20024;-73
2021/06/24 05:02:16;;;;;;;31.67;28.33;;;;;;;;;;5094785;28;20028;-72
2021/06/24 05:04:42;;;;;;;31.08;27.77;;;;;;;;;;5094030;28;20118;-73
2021/06/24 05:07:10;;;;;;;36.05;29.58;;;;;;;;;;5093772;28;20469;-73
2021/06/24 05:09:40;;;;;;;38.22;32.05;;;;;;;;;;5094462;28;20107;-72
2021/06/24 05:12:07;;;;;;;35.90;31.85;;;;;;;;;;5094033;28;20383;-72
2021/06/24 05:14:33;;;;;;;38.78;34.67;;;;;;;;;;5094118;28;20024;-73
2021/06/24 05:16:59;;;;;;;40.20;31.95;;;;;;;;;;5092497;28;20474;-72
2021/06/24 05:19:25;;;;;;;53.65;31.55;;;;;;;;;;5092631;28;20431;-72
2021/06/24 05:21:51;;;;;;;33.33;29.85;;;;;;;;;;5093668;28;20028;-73
2021/06/24 05:24:17;;;;;;;36.38;32.45;;;;;;;;;;5095020;28;20032;-72
2021/06/24 05:26:43;;;;;;;36.05;32.20;;;;;;;;;;5095994;28;20028;-73
2021/06/24 05:29:09;;;;;;;38.85;31.67;;;;;;;;;;5095167;28;20028;-73
2021/06/24 05:31:37;;;;;;;33.92;30.40;;;;;;;;;;5098160;28;20469;-74
2021/06/24 05:34:04;;;;;;;35.28;31.55;;;;;;;;;;5098133;28;20028;-73
2021/06/24 05:36:31;;;;;;;36.95;32.30;;;;;;;;;;5097448;28;20103;-74
2021/06/24 05:38:58;;;;;;;38.13;34.00;;;;;;;;;;5097503;28;20024;-74
2021/06/24 05:41:24;;;;;;;36.72;30.67;;;;;;;;;;5097218;28;20111;-73
2021/06/24 05:43:50;;;;;;;41.53;30.05;;;;;;;;;;5098218;28;20028;-73
2021/06/24 05:46:16;;;;;;;32.97;29.23;;;;;;;;;;5098075;28;20377;-72
2021/06/24 05:48:42;;;;;;;32.97;29.50;;;;;;;;;;5097766;28;20032;-74
2021/06/24 05:51:08;;;;;;;32.58;28.35;;;;;;;;;;5096858;28;20056;-73
2021/06/24 05:53:34;;;;;;;41.72;27.75;;;;;;;;;;5098429;28;20085;-73
2021/06/24 05:56:00;;;;;;;31.60;28.45;;;;;;;;;;5098195;28;20373;-72
2021/06/24 05:58:28;;;;;;;28.17;24.88;;;;;;;;;;5097637;28;20017;-74
2021/06/24 06:00:55;;;;;;;30.20;27.05;;;;;;;;;;5097306;28;20028;-73
2021/06/24 06:03:21;;;;;;;34.97;28.25;;;;;;;;;;5097812;28;20032;-72
2021/06/24 06:05:48;;;;;;;30.77;27.40;;;;;;;;;;5097090;28;20404;-72
2021/06/24 06:08:14;;;;;;;33.97;30.10;;;;;;;;;;5097766;28;20366;-72
2021/06/24 06:10:40;;;;;;;39.75;28.90;;;;;;;;;;5097421;28;20035;-72
2021/06/24 06:13:06;;;;;;;32.58;27.45;;;;;;;;;;5097373;28;20024;-72
2021/06/24 06:15:34;;;;;;;35.15;27.77;;;;;;;;;;5097526;28;20028;-72
2021/06/24 06:18:00;;;;;;;33.53;25.42;;;;;;;;;;5097609;28;20466;-72
2021/06/24 06:20:26;;;;;;;33.13;27.88;;;;;;;;;;5096881;28;20069;-72
2021/06/24 06:22:52;;;;;;;32.97;27.13;;;;;;;;;;5097044;28;20051;-73
2021/06/24 06:25:18;;;;;;;35.00;31.30;;;;;;;;;;5097404;28;20077;-72
2021/06/24 06:27:44;;;;;;;31.60;23.35;;;;;;;;;;5097709;28;20107;-72
2021/06/24 06:30:10;;;;;;;35.58;28.08;;;;;;;;;;5097094;28;20027;-72
2021/06/24 06:32:36;;;;;;;28.27;25.23;;;;;;;;;;5097197;28;20488;-72
2021/06/24 06:35:03;;;;;;;36.33;28.38;;;;;;;;;;5096272;28;20115;-72
2021/06/24 06:37:29;;;;;;;38.72;28.00;;;;;;;;;;5097522;28;20028;-72
2021/06/24 06:39:55;;;;;;;32.70;28.17;;;;;;;;;;5096617;28;20066;-71
2021/06/24 06:42:21;;;;;;;36.55;30.40;;;;;;;;;;5095977;28;20024;-71
2021/06/24 06:44:47;;;;;;;30.63;27.30;;;;;;;;;;5096883;28;20021;-72
2021/06/24 06:47:13;;;;;;;35.85;28.10;;;;;;;;;;5096338;28;20511;-71
2021/06/24 06:49:39;;;;;;;35.30;28.42;;;;;;;;;;5096278;28;20132;-72
2021/06/24 06:52:05;;;;;;;35.53;28.80;;;;;;;;;;5096966;28;20412;-71
2021/06/24 06:54:31;;;;;;;34.67;25.90;;;;;;;;;;5096199;28;20483;-71
2021/06/24 06:56:58;;;;;;;34.05;29.08;;;;;;;;;;5096255;28;20024;-72
2021/06/24 06:59:24;;;;;;;38.30;30.65;;;;;;;;;;5096154;28;20020;-70
2021/06/24 07:01:50;;;;;;;32.45;27.83;;;;;;;;;;5096369;28;20112;-71
2021/06/24 07:04:16;;;;;;;31.00;27.67;;;;;;;;;;5096038;28;20051;-72
2021/06/24 07:06:42;;;;;;;33.63;30.08;;;;;;;;;;5095787;28;20475;-72
2021/06/24 07:09:09;;;;;;;33.47;27.63;;;;;;;;;;5096113;28;20033;-71
2021/06/24 07:11:35;;;;;;;33.22;26.70;;;;;;;;;;5096413;28;20081;-72
2021/06/24 07:14:01;;;;;;;36.10;29.77;;;;;;;;;;5096265;28;20028;-72
2021/06/24 07:16:27;;;;;;;32.08;28.55;;;;;;;;;;5096042;28;20024;-72
2021/06/24 07:18:53;;;;;;;31.88;26.42;;;;;;;;;;5096682;28;20504;-72
2021/06/24 07:21:19;;;;;;;28.35;24.50;;;;;;;;;;5097176;28;20114;-71
2021/06/24 07:23:45;;;;;;;27.70;24.58;;;;;;;;;;5096677;28;20024;-71
2021/06/24 07:26:11;;;;;;;32.90;26.65;;;;;;;;;;5097170;28;20016;-72
2021/06/24 07:28:37;;;;;;;28.48;25.40;;;;;;;;;;5096759;28;20362;-71
2021/06/24 07:31:03;;;;;;;35.40;25.75;;;;;;;;;;5095641;28;20036;-70
2021/06/24 07:33:30;;;;;;;30.33;23.45;;;;;;;;;;5095674;28;20024;-70
2021/06/24 07:35:56;;;;;;;34.75;24.95;;;;;;;;;;5096194;28;20468;-71
2021/06/24 07:38:22;;;;;;;30.90;24.88;;;;;;;;;;5096070;28;20040;-70
2021/06/24 07:40:48;;;;;;;29.35;22.58;;;;;;;;;;5095553;28;20028;-70
2021/06/24 07:43:14;;;;;;;44.42;26.52;;;;;;;;;;5095376;28;20024;-70
2021/06/24 07:45:40;;;;;;;65.55;34.30;;;;;;;;;;5096087;28;20031;-71
2021/06/24 07:48:07;;;;;;;79.32;38.40;;;;;;;;;;5096465;28;20020;-71
2021/06/24 07:50:33;;;;;;;98.50;40.65;;;;;;;;;;5094905;28;20048;-70
2021/06/24 07:52:59;;;;;;;119.50;46.47;;;;;;;;;;5096397;28;20074;-71
2021/06/24 07:55:33;;;;;;;108.50;40.75;;;;;;;;;;5096562;28;20508;-71
2021/06/24 07:57:59;;;;;;;106.85;44.85;;;;;;;;;;5096561;28;20370;-71
2021/06/24 08:00:25;;;;;;;96.75;42.85;;;;;;;;;;5096227;28;20055;-71
2021/06/24 08:02:51;;;;;;;104.88;47.35;;;;;;;;;;5095262;28;20025;-72
2021/06/24 08:05:18;;;;;;;74.07;39.67;;;;;;;;;;5095771;28;20402;-72
2021/06/24 08:07:45;;;;;;;104.25;40.17;;;;;;;;;;5095186;28;20024;-69
2021/06/24 08:10:12;;;;;;;109.20;41.22;;;;;;;;;;5095691;28;20039;-69
2021/06/24 08:12:40;;;;;;;100.85;45.25;;;;;;;;;;5095875;28;20488;-71
2021/06/24 08:15:07;;;;;;;112.40;47.88;;;;;;;;;;5094821;28;20385;-73
2021/06/24 08:17:33;;;;;;;115.45;54.25;;;;;;;;;;5095962;28;20043;-71
2021/06/24 08:19:59;;;;;;;150.80;63.58;;;;;;;;;;5095088;28;20020;-70
2021/06/24 08:22:27;;;;;;;161.13;62.78;;;;;;;;;;5095510;28;20457;-71
2021/06/24 08:24:53;;;;;;;134.18;53.90;;;;;;;;;;5095755;28;20024;-70
2021/06/24 08:27:19;;;;;;;113.47;52.15;;;;;;;;;;5095419;28;20077;-74
2021/06/24 08:29:45;;;;;;;108.55;48.47;;;;;;;;;;5095426;28;20017;-74
2021/06/24 08:32:11;;;;;;;88.50;44.72;;;;;;;;;;5095237;28;20047;-73
2021/06/24 08:34:38;;;;;;;76.95;42.17;;;;;;;;;;5095840;28;20056;-73
2021/06/24 08:37:04;;;;;;;76.75;41.75;;;;;;;;;;5095011;28;20031;-70
2021/06/24 08:39:30;;;;;;;81.63;45.22;;;;;;;;;;5094355;28;20111;-71
2021/06/24 08:41:56;;;;;;;65.63;37.88;;;;;;;;;;5093927;28;20028;-71
2021/06/24 08:44:22;;;;;;;61.53;32.55;;;;;;;;;;5094104;28;20040;-71
2021/06/24 08:46:51;;;;;;;50.70;31.45;;;;;;;;;;5094298;28;20078;-71
2021/06/24 08:49:21;;;;;;;46.72;30.15;;;;;;;;;;5094668;28;20052;-71
2021/06/24 08:51:47;;;;;;;45.65;30.92;;;;;;;;;;5094709;28;20047;-72
2021/06/24 08:54:14;;;;;;;40.00;26.08;;;;;;;;;;5094210;28;20020;-71
2021/06/24 08:56:40;;;;;;;44.50;29.20;;;;;;;;;;5093864;28;20085;-71
2021/06/24 08:59:08;;;;;;;40.97;26.42;;;;;;;;;;5093739;28;20024;-72
2021/06/24 09:01:54;;;;;;;36.75;24.48;;;;;;;;;;5093959;28;20465;-72
2021/06/24 09:04:22;;;;;;;41.13;25.38;;;;;;;;;;5079071;28;20362;-71
2021/06/24 09:06:48;;;;;;;45.00;25.45;;;;;;;;;;5094370;28;20024;-72
2021/06/24 09:09:33;;;;;;;33.22;23.42;;;;;;;;;;5093812;28;20082;-72
2021/06/24 09:12:06;;;;;;;49.67;27.55;;;;;;;;;;5093729;28;20020;-70
2021/06/24 09:14:54;;;;;;;37.97;24.38;;;;;;;;;;5094732;28;20505;-71
2021/06/24 09:17:36;;;;;;;40.80;22.67;;;;;;;;;;5080195;28;20111;-71
2021/06/24 09:20:04;;;;;;;31.75;22.85;;;;;;;;;;5094360;28;20038;-70
2021/06/24 09:22:30;;;;;;;31.83;21.38;;;;;;;;;;5094105;28;20024;-71
2021/06/24 09:24:56;;;;;;;37.63;21.95;;;;;;;;;;5093879;28;20036;-71
2021/06/24 09:27:25;;;;;;;32.78;20.85;;;;;;;;;;5094701;28;20016;-70
2021/06/24 09:29:52;;;;;;;30.45;21.45;;;;;;;;;;5094596;28;20064;-70
2021/06/24 09:32:35;;;;;;;29.70;22.17;;;;;;;;;;5094263;28;20123;-70
2021/06/24 09:35:02;;;;;;;31.70;19.92;;;;;;;;;;5093697;28;20024;-71
2021/06/24 09:37:29;;;;;;;24.55;19.05;;;;;;;;;;5094618;28;20112;-70
2021/06/24 09:39:56;;;;;;;21.35;19.13;;;;;;;;;;5094016;28;20032;-71
2021/06/24 09:42:23;;;;;;;24.98;20.00;;;;;;;;;;5094044;28;20553;-70
2021/06/24 09:44:49;;;;;;;21.67;17.25;;;;;;;;;;5093900;28;20110;-70
2021/06/24 09:47:20;;;;;;;26.05;17.98;;;;;;;;;;5093442;28;20024;-70
2021/06/24 09:50:02;;;;;;;21.65;17.67;;;;;;;;;;5093620;28;20052;-70
2021/06/24 09:52:28;;;;;;;22.25;18.42;;;;;;;;;;5093181;28;20055;-70
2021/06/24 09:55:04;;;;;;;24.90;16.15;;;;;;;;;;5093030;28;20448;-71
2021/06/24 09:57:31;;;;;;;22.38;15.70;;;;;;;;;;5090497;28;20031;-73
2021/06/24 09:59:57;;;;;;;24.10;15.95;;;;;;;;;;5099686;28;20025;-71
2021/06/24 10:02:23;;;;;;;34.88;17.05;;;;;;;;;;5108456;28;20024;-72
2021/06/24 10:04:49;;;;;;;25.23;17.02;;;;;;;;;;5113058;28;20023;-72
2021/06/24 10:07:16;;;;;;;26.40;18.63;;;;;;;;;;5103467;28;20043;-71
2021/06/24 10:09:42;;;;;;;19.15;15.93;;;;;;;;;;5093313;28;20032;-72
2021/06/24 10:12:10;;;;;;;20.85;16.15;;;;;;;;;;5091896;28;20058;-71
2021/06/24 10:14:37;;;;;;;26.55;14.63;;;;;;;;;;5092488;28;20028;-71
2021/06/24 10:17:03;;;;;;;25.98;14.13;;;;;;;;;;5093144;28;20373;-72
2021/06/24 10:19:30;;;;;;;23.13;14.73;;;;;;;;;;5095908;28;20473;-71
2021/06/24 10:21:58;;;;;;;23.83;14.68;;;;;;;;;;5096938;28;20028;-71
2021/06/24 10:24:29;;;;;;;27.70;15.15;;;;;;;;;;5095959;28;20058;-71
2021/06/24 10:26:56;;;;;;;25.00;12.70;;;;;;;;;;5098930;28;20016;-74
2021/06/24 10:29:23;;;;;;;18.80;14.70;;;;;;;;;;5115780;28;20035;-73
2021/06/24 10:31:50;;;;;;;26.27;13.15;;;;;;;;;;5116350;28;20035;-71
2021/06/24 10:34:17;;;;;;;20.60;13.60;;;;;;;;;;5116093;28;20369;-72
2021/06/24 10:37:03;;;;;;;19.92;13.48;;;;;;;;;;5112233;28;20032;-73
2021/06/24 10:39:36;;;;;;;23.70;12.18;;;;;;;;;;5081471;28;20377;-74
2021/06/24 10:42:03;;;;;;;23.25;11.07;;;;;;;;;;5095965;28;20484;-70
2021/06/24 10:44:50;;;;;;;20.88;12.05;;;;;;;;;;5097002;28;20047;-70
2021/06/24 10:47:33;;;;;;;17.83;11.48;;;;;;;;;;5080150;28;20354;-69
2021/06/24 10:50:19;;;;;;;21.45;11.02;;;;;;;;;;5096202;28;20086;-71
2021/06/24 10:52:45;;;;;;;19.85;11.57;;;;;;;;;;5081024;28;20028;-69
2021/06/24 10:55:32;;;;;;;18.80;10.18;;;;;;;;;;5095032;28;20027;-70
2021/06/24 10:57:58;;;;;;;15.50;10.77;;;;;;;;;;5080131;28;20028;-70
2021/06/24 11:00:39;;;;;;;26.95;11.57;;;;;;;;;;5095448;28;20031;-70
2021/06/24 11:03:06;;;;;;;15.80;10.93;;;;;;;;;;5095495;28;20039;-71
2021/06/24 11:05:36;;;;;;;16.10;12.55;;;;;;;;;;5097347;28;20032;-70
2021/06/24 11:08:17;;;;;;;19.05;9.63;;;;;;;;;;5105675;28;20400;-70
2021/06/24 11:10:51;;;;;;;17.42;10.07;;;;;;;;;;5114413;28;20493;-70
2021/06/24 11:13:39;;;;;;;23.83;11.05;;;;;;;;;;5115620;28;20032;-69
2021/06/24 11:16:06;;;;;;;14.82;9.63;;;;;;;;;;5101373;28;20396;-70
2021/06/24 11:18:52;;;;;;;15.18;9.45;;;;;;;;;;5108153;28;20036;-73
2021/06/24 11:21:38;;;;;;;31.23;12.57;;;;;;;;;;5095911;28;20027;-75
2021/06/24 11:24:17;;;;;;;20.42;11.77;;;;;;;;;;5080888;28;20114;-75
2021/06/24 11:26:44;;;;;;;18.95;9.70;;;;;;;;;;5112849;28;20114;-75
2021/06/24 11:29:18;;;;;;;17.95;10.20;;;;;;;;;;5105763;28;20538;-74
2021/06/24 11:31:52;;;;;;;17.85;11.25;;;;;;;;;;5108493;28;20492;-74
2021/06/24 11:34:27;;;;;;;14.50;10.93;;;;;;;;;;5096503;28;20036;-73
2021/06/24 11:36:54;;;;;;;17.92;9.93;;;;;;;;;;5113665;28;20055;-73
2021/06/24 11:39:23;;;;;;;13.02;9.95;;;;;;;;;;5111019;28;20035;-72
2021/06/24 11:41:51;;;;;;;20.38;9.43;;;;;;;;;;5113291;28;20019;-72
2021/06/24 11:44:23;;;;;;;22.70;9.63;;;;;;;;;;5095452;28;20112;-72
2021/06/24 11:46:53;;;;;;;20.75;8.80;;;;;;;;;;5095342;28;20073;-73
2021/06/24 12:00:24;;;;;;;21.20;9.40;;;;;;;;;;5098234;28;20048;-75
2021/06/24 12:00:35;;;;;;;13.80;8.13;;;;;;;;;;5099504;28;20126;-74
2021/06/24 12:03:08;;;;;;;14.75;8.02;;;;;;;;;;5114105;28;20019;-70
2021/06/24 12:05:38;;;;;;;9.95;7.80;;;;;;;;;;5114215;28;20020;-71
2021/06/24 12:08:04;;;;;;;19.50;11.27;;;;;;;;;;5114102;28;20035;-70
2021/06/24 12:10:30;;;;;;;14.48;7.95;;;;;;;;;;5114874;28;20023;-70
2021/06/24 12:12:56;;;;;;;16.63;7.68;;;;;;;;;;5114250;28;20032;-71
2021/06/24 12:15:22;;;;;;;17.10;8.75;;;;;;;;;;5114391;28;20476;-70
2021/06/24 12:17:48;;;;;;;17.70;9.52;;;;;;;;;;5114455;28;20024;-70
2021/06/24 12:20:18;;;;;;;24.98;9.10;;;;;;;;;;5114298;28;20020;-72
2021/06/24 12:22:45;;;;;;;12.48;7.72;;;;;;;;;;5114847;28;20020;-70
2021/06/24 12:25:13;;;;;;;21.48;8.88;;;;;;;;;;5114331;28;20028;-71
2021/06/24 12:27:40;;;;;;;16.05;8.05;;;;;;;;;;5113871;28;20397;-71
2021/06/24 12:30:07;;;;;;;15.80;7.15;;;;;;;;;;5113994;28;20020;-71
2021/06/24 12:32:34;;;;;;;12.90;8.13;;;;;;;;;;5114166;28;20039;-72
2021/06/24 12:35:00;;;;;;;15.27;9.88;;;;;;;;;;5112818;28;20054;-71
2021/06/24 12:37:34;;;;;;;13.10;7.32;;;;;;;;;;5114366;28;20053;-71
2021/06/24 12:40:01;;;;;;;31.70;9.52;;;;;;;;;;5113205;28;20019;-72
2021/06/24 12:42:27;;;;;;;15.70;8.88;;;;;;;;;;5114168;28;20019;-71
2021/06/24 12:44:53;;;;;;;15.63;9.02;;;;;;;;;;5114206;28;20047;-73
2021/06/24 12:47:42;;;;;;;12.57;8.15;;;;;;;;;;5114411;28;20028;-73
2021/06/24 12:50:10;;;;;;;22.30;9.48;;;;;;;;;;5093344;28;20131;-74
2021/06/24 12:52:36;;;;;;;20.08;9.50;;;;;;;;;;5093878;28;20032;-74
2021/06/24 12:55:02;;;;;;;20.58;10.60;;;;;;;;;;5093467;28;20024;-74
2021/06/24 12:57:28;;;;;;;13.27;8.80;;;;;;;;;;5093792;28;20032;-74
2021/06/24 12:59:54;;;;;;;19.75;10.48;;;;;;;;;;5093805;28;20023;-72
2021/06/24 13:02:20;;;;;;;23.70;9.27;;;;;;;;;;5094195;28;20028;-72
2021/06/24 13:04:46;;;;;;;20.60;9.93;;;;;;;;;;5094335;28;20024;-71
2021/06/24 13:07:13;;;;;;;10.70;8.85;;;;;;;;;;5093843;28;20134;-72
2021/06/24 13:09:41;;;;;;;18.10;10.85;;;;;;;;;;5094151;28;20059;-72
2021/06/24 13:12:08;;;;;;;15.43;11.05;;;;;;;;;;5093892;28;20032;-71
2021/06/24 13:14:36;;;;;;;17.73;10.85;;;;;;;;;;5093966;28;20028;-74
2021/06/24 13:17:04;;;;;;;14.48;10.50;;;;;;;;;;5093732;28;20028;-74
2021/06/24 13:19:33;;;;;;;19.92;12.52;;;;;;;;;;5092750;28;20027;-74
2021/06/24 13:22:20;;;;;;;22.98;13.75;;;;;;;;;;5079622;28;20029;-75
2021/06/24 13:24:47;;;;;;;33.08;12.80;;;;;;;;;;5072157;28;20043;-72
2021/06/24 13:27:14;;;;;;;18.88;12.75;;;;;;;;;;5072797;28;20054;-72
2021/06/24 13:29:41;;;;;;;21.02;11.88;;;;;;;;;;5074011;28;20025;-75
2021/06/24 13:32:08;;;;;;;17.00;12.02;;;;;;;;;;5081538;28;20036;-76
2021/06/24 13:34:36;;;;;;;25.10;12.60;;;;;;;;;;5082234;28;20023;-76
2021/06/24 13:37:17;;;;;;;22.25;12.10;;;;;;;;;;5083287;28;20024;-79
2021/06/24 13:39:44;;;;;;;30.02;14.52;;;;;;;;;;5083827;28;20401;-74
2021/06/24 13:42:10;;;;;;;13.02;11.43;;;;;;;;;;5083857;28;20024;-75
2021/06/24 13:44:36;;;;;;;22.90;14.40;;;;;;;;;;5082961;28;20013;-74
2021/06/24 13:47:02;;;;;;;17.05;12.07;;;;;;;;;;5081968;28;20489;-73
2021/06/24 13:49:28;;;;;;;27.45;15.13;;;;;;;;;;5090301;28;20040;-79
2021/06/24 13:51:54;;;;;;;23.52;11.43;;;;;;;;;;5109780;28;20029;-79
2021/06/24 13:54:21;;;;;;;23.48;12.95;;;;;;;;;;5108340;28;20051;-90
2021/06/24 13:56:47;;;;;;;12.75;11.50;;;;;;;;;;5111270;28;20019;-80
2021/06/24 13:59:14;;;;;;;18.42;12.52;;;;;;;;;;5112696;28;20091;-77
2021/06/24 14:01:40;;;;;;;22.25;13.25;;;;;;;;;;5117236;28;20445;-77
2021/06/24 14:04:06;;;;;;;37.78;13.43;;;;;;;;;;5119370;28;20108;-81
2021/06/24 14:06:36;;;;;;;33.63;12.65;;;;;;;;;;5120731;28;20040;-78
2021/06/24 14:09:04;;;;;;;18.80;13.77;;;;;;;;;;5119448;28;20026;-75
2021/06/24 14:11:30;;;;;;;16.88;11.52;;;;;;;;;;5120207;28;20035;-77
2021/06/24 14:13:56;;;;;;;15.02;12.60;;;;;;;;;;5121365;28;20023;-76
2021/06/24 14:16:22;;;;;;;19.13;12.77;;;;;;;;;;5119804;28;20381;-76
2021/06/24 14:18:48;;;;;;;16.40;11.40;;;;;;;;;;5120008;28;20023;-82
2021/06/24 14:21:17;;;;;;;20.88;13.00;;;;;;;;;;5120282;28;20038;-81
2021/06/24 14:23:43;;;;;;;25.05;13.55;;;;;;;;;;5119797;28;20024;-75
2021/06/24 14:26:09;;;;;;;21.13;12.13;;;;;;;;;;5117815;28;20070;-75
2021/06/24 14:28:36;;;;;;;23.90;12.70;;;;;;;;;;5117999;28;20055;-75
2021/06/24 14:31:02;;;;;;;20.05;13.10;;;;;;;;;;5117082;28;20030;-72